sensor_id;sensor_type;location;lat;lon;timestamp;temperature;humidity
7366;DHT22;3723;52.220;8.792;2022-07-29T01:25:05;16.20;68.20
7366;DHT22;3723;52.220;8.792;2022-07-29T01:28:01;16.30;69.50
7366;DHT22;3723;52.220;8.792;2022-07-29T01:48:40;16.30;67.90
7366;DHT22;3723;52.220;8.792;2022-07-29T02:19:19;15.90;70.20
7366;DHT22;3723;52.220;8.792;2022-07-29T02:40:20;16.10;69.10
7366;DHT22;3723;52.220;8.792;2022-07-29T02:43:14;16.20;68.90
7366;DHT22;3723;52.220;8.792;2022-07-29T02:46:25;16.20;68.70
7366;DHT22;3723;52.220;8.792;2022-07-29T03:22:45;15.70;68.80
7366;DHT22;3723;52.220;8.792;2022-07-29T03:49:46;15.40;69.40
7366;DHT22;3723;52.220;8.792;2022-07-29T03:52:15;15.30;70.40
7366;DHT22;3723;52.220;8.792;2022-07-29T03:54:45;15.30;72.40
7366;DHT22;3723;52.220;8.792;2022-07-29T04:01:02;15.40;69.40
7366;DHT22;3723;52.220;8.792;2022-07-29T04:03:52;15.30;70.30
7366;DHT22;3723;52.220;8.792;2022-07-29T04:13:24;15.20;73.50
7366;DHT22;3723;52.220;8.792;2022-07-29T04:16:16;15.20;74.40
7366;DHT22;3723;52.220;8.792;2022-07-29T04:25:59;15.40;75.40
7366;DHT22;3723;52.220;8.792;2022-07-29T04:31:33;15.50;76.10
7366;DHT22;3723;52.220;8.792;2022-07-29T04:34:07;15.60;75.60
7366;DHT22;3723;52.220;8.792;2022-07-29T04:37:09;15.60;75.60
7366;DHT22;3723;52.220;8.792;2022-07-29T04:41:24;15.60;74.90
7366;DHT22;3723;52.220;8.792;2022-07-29T04:43:22;15.70;75.90
7366;DHT22;3723;52.220;8.792;2022-07-29T04:46:01;15.60;75.80
7366;DHT22;3723;52.220;8.792;2022-07-29T04:48:51;15.60;74.60
7366;DHT22;3723;52.220;8.792;2022-07-29T04:51:53;15.60;90.50
7366;DHT22;3723;52.220;8.792;2022-07-29T04:55:08;15.60;75.90
7366;DHT22;3723;52.220;8.792;2022-07-29T04:57:51;15.60;74.90
7366;DHT22;3723;52.220;8.792;2022-07-29T05:12:23;15.80;75.40
7366;DHT22;3723;52.220;8.792;2022-07-29T05:17:53;16.00;74.70
7366;DHT22;3723;52.220;8.792;2022-07-29T05:24:05;16.10;73.90
7366;DHT22;3723;52.220;8.792;2022-07-29T05:30:29;16.20;74.70
7366;DHT22;3723;52.220;8.792;2022-07-29T05:44:14;17.50;79.10
7366;DHT22;3723;52.220;8.792;2022-07-29T05:57:59;18.40;74.60
7366;DHT22;3723;52.220;8.792;2022-07-29T06:07:37;18.60;72.80
7366;DHT22;3723;52.220;8.792;2022-07-29T06:10:13;18.80;73.00
7366;DHT22;3723;52.220;8.792;2022-07-29T06:16:31;19.10;73.30
7366;DHT22;3723;52.220;8.792;2022-07-29T06:19:01;19.30;73.20
7366;DHT22;3723;52.220;8.792;2022-07-29T06:21:34;19.40;72.40
7366;DHT22;3723;52.220;8.792;2022-07-29T06:24:02;19.50;72.00
7366;DHT22;3723;52.220;8.792;2022-07-29T06:26:29;19.60;71.20
7366;DHT22;3723;52.220;8.792;2022-07-29T06:28:55;19.60;70.50
7366;DHT22;3723;52.220;8.792;2022-07-29T06:32:05;19.70;70.40
7366;DHT22;3723;52.220;8.792;2022-07-29T06:34:27;19.80;70.80
7366;DHT22;3723;52.220;8.792;2022-07-29T06:37:08;19.90;69.50
7366;DHT22;3723;52.220;8.792;2022-07-29T06:39:41;19.90;68.00
7366;DHT22;3723;52.220;8.792;2022-07-29T06:42:08;20.10;68.20
7366;DHT22;3723;52.220;8.792;2022-07-29T06:44:35;20.20;69.60
7366;DHT22;3723;52.220;8.792;2022-07-29T06:47:07;20.30;69.30
7366;DHT22;3723;52.220;8.792;2022-07-29T06:49:33;20.60;69.00
7366;DHT22;3723;52.220;8.792;2022-07-29T06:52:00;20.70;70.10
7366;DHT22;3723;52.220;8.792;2022-07-29T06:54:41;20.90;70.40
7366;DHT22;3723;52.220;8.792;2022-07-29T06:57:48;21.10;70.10
7366;DHT22;3723;52.220;8.792;2022-07-29T07:00:35;21.40;70.30
7366;DHT22;3723;52.220;8.792;2022-07-29T07:03:02;21.60;70.00
7366;DHT22;3723;52.220;8.792;2022-07-29T07:05:35;21.70;69.60
7366;DHT22;3723;52.220;8.792;2022-07-29T07:08:06;21.90;71.00
7366;DHT22;3723;52.220;8.792;2022-07-29T07:10:38;22.20;71.30
7366;DHT22;3723;52.220;8.792;2022-07-29T07:13:08;22.40;71.70
7366;DHT22;3723;52.220;8.792;2022-07-29T07:15:38;22.40;70.70
7366;DHT22;3723;52.220;8.792;2022-07-29T07:18:07;22.40;68.50
7366;DHT22;3723;52.220;8.792;2022-07-29T07:20:35;22.20;67.10
7366;DHT22;3723;52.220;8.792;2022-07-29T07:23:02;22.00;63.80
7366;DHT22;3723;52.220;8.792;2022-07-29T07:25:29;21.90;62.90
7366;DHT22;3723;52.220;8.792;2022-07-29T07:27:57;21.70;61.50
7366;DHT22;3723;52.220;8.792;2022-07-29T07:30:32;21.70;60.90
7366;DHT22;3723;52.220;8.792;2022-07-29T07:33:02;21.80;62.30
7366;DHT22;3723;52.220;8.792;2022-07-29T07:35:30;22.00;61.80
7366;DHT22;3723;52.220;8.792;2022-07-29T07:37:57;22.10;61.40
7366;DHT22;3723;52.220;8.792;2022-07-29T07:40:27;22.20;62.70
7366;DHT22;3723;52.220;8.792;2022-07-29T07:42:57;22.40;62.90
7366;DHT22;3723;52.220;8.792;2022-07-29T07:45:24;22.70;64.20
7366;DHT22;3723;52.220;8.792;2022-07-29T07:48:00;23.20;66.80
7366;DHT22;3723;52.220;8.792;2022-07-29T07:50:27;23.70;68.70
7366;DHT22;3723;52.220;8.792;2022-07-29T07:52:55;24.10;69.80
7366;DHT22;3723;52.220;8.792;2022-07-29T07:55:25;24.50;71.50
7366;DHT22;3723;52.220;8.792;2022-07-29T07:57:52;25.10;74.80
7366;DHT22;3723;52.220;8.792;2022-07-29T08:00:22;25.60;75.90
7366;DHT22;3723;52.220;8.792;2022-07-29T08:02:51;25.70;75.30
7366;DHT22;3723;52.220;8.792;2022-07-29T08:05:30;25.70;73.00
7366;DHT22;3723;52.220;8.792;2022-07-29T08:07:57;25.80;71.40
7366;DHT22;3723;52.220;8.792;2022-07-29T08:10:27;25.80;71.20
7366;DHT22;3723;52.220;8.792;2022-07-29T08:13:09;26.00;71.40
7366;DHT22;3723;52.220;8.792;2022-07-29T08:15:50;26.40;73.00
7366;DHT22;3723;52.220;8.792;2022-07-29T08:18:23;26.70;72.20
7366;DHT22;3723;52.220;8.792;2022-07-29T08:20:50;26.50;69.70
7366;DHT22;3723;52.220;8.792;2022-07-29T08:23:17;26.20;66.50
7366;DHT22;3723;52.220;8.792;2022-07-29T08:25:44;26.00;63.90
7366;DHT22;3723;52.220;8.792;2022-07-29T08:28:11;25.70;62.90
7366;DHT22;3723;52.220;8.792;2022-07-29T08:30:38;25.60;60.40
7366;DHT22;3723;52.220;8.792;2022-07-29T08:33:06;25.40;58.20
7366;DHT22;3723;52.220;8.792;2022-07-29T08:35:33;25.40;58.10
7366;DHT22;3723;52.220;8.792;2022-07-29T08:37:59;25.20;56.10
7366;DHT22;3723;52.220;8.792;2022-07-29T08:40:35;25.20;55.60
7366;DHT22;3723;52.220;8.792;2022-07-29T08:43:05;25.30;56.90
7366;DHT22;3723;52.220;8.792;2022-07-29T08:45:42;25.50;55.80
7366;DHT22;3723;52.220;8.792;2022-07-29T08:48:13;25.70;56.90
7366;DHT22;3723;52.220;8.792;2022-07-29T08:50:55;26.10;58.00
7366;DHT22;3723;52.220;8.792;2022-07-29T08:53:29;26.70;60.20
7366;DHT22;3723;52.220;8.792;2022-07-29T08:55:57;27.40;63.60
7366;DHT22;3723;52.220;8.792;2022-07-29T08:58:31;27.50;62.90
7366;DHT22;3723;52.220;8.792;2022-07-29T09:04:12;28.40;65.60
7366;DHT22;3723;52.220;8.792;2022-07-29T09:06:50;28.90;67.00
7366;DHT22;3723;52.220;8.792;2022-07-29T09:09:23;29.40;68.60
7366;DHT22;3723;52.220;8.792;2022-07-29T09:12:13;30.10;71.30
7366;DHT22;3723;52.220;8.792;2022-07-29T09:20:08;31.80;74.60
7366;DHT22;3723;52.220;8.792;2022-07-29T09:22:41;32.40;75.60
7366;DHT22;3723;52.220;8.792;2022-07-29T09:25:40;32.70;75.30
7366;DHT22;3723;52.220;8.792;2022-07-29T09:28:11;32.60;72.60
7366;DHT22;3723;52.220;8.792;2022-07-29T09:30:50;32.40;68.20
7366;DHT22;3723;52.220;8.792;2022-07-29T09:33:21;32.40;66.40
7366;DHT22;3723;52.220;8.792;2022-07-29T09:36:02;32.20;63.10
7366;DHT22;3723;52.220;8.792;2022-07-29T09:38:30;32.00;59.90
7366;DHT22;3723;52.220;8.792;2022-07-29T09:40:58;32.00;58.40
7366;DHT22;3723;52.220;8.792;2022-07-29T09:43:26;31.70;56.10
7366;DHT22;3723;52.220;8.792;2022-07-29T09:45:53;31.50;54.60
7366;DHT22;3723;52.220;8.792;2022-07-29T09:48:22;31.50;53.40
7366;DHT22;3723;52.220;8.792;2022-07-29T09:50:49;31.30;51.50
7366;DHT22;3723;52.220;8.792;2022-07-29T09:53:33;31.10;50.10
7366;DHT22;3723;52.220;8.792;2022-07-29T09:56:01;31.00;48.00
7366;DHT22;3723;52.220;8.792;2022-07-29T09:58:28;30.60;46.00
7366;DHT22;3723;52.220;8.792;2022-07-29T10:00:55;30.30;43.80
7366;DHT22;3723;52.220;8.792;2022-07-29T10:03:23;30.10;42.00
7366;DHT22;3723;52.220;8.792;2022-07-29T10:06:06;29.90;40.90
7366;DHT22;3723;52.220;8.792;2022-07-29T10:08:35;30.00;40.60
7366;DHT22;3723;52.220;8.792;2022-07-29T10:11:12;30.80;44.20
7366;DHT22;3723;52.220;8.792;2022-07-29T10:13:42;31.60;48.20
7366;DHT22;3723;52.220;8.792;2022-07-29T10:16:18;32.30;51.10
7366;DHT22;3723;52.220;8.792;2022-07-29T10:18:47;32.50;51.50
7366;DHT22;3723;52.220;8.792;2022-07-29T10:21:16;32.30;49.80
7366;DHT22;3723;52.220;8.792;2022-07-29T10:23:59;31.90;46.60
7366;DHT22;3723;52.220;8.792;2022-07-29T10:26:26;31.20;42.10
7366;DHT22;3723;52.220;8.792;2022-07-29T10:28:52;30.60;38.60
7366;DHT22;3723;52.220;8.792;2022-07-29T10:31:26;30.00;35.20
7366;DHT22;3723;52.220;8.792;2022-07-29T10:34:01;29.60;35.00
7366;DHT22;3723;52.220;8.792;2022-07-29T10:36:40;29.50;33.00
7366;DHT22;3723;52.220;8.792;2022-07-29T10:39:33;29.30;32.60
7366;DHT22;3723;52.220;8.792;2022-07-29T10:42:17;29.20;32.40
7366;DHT22;3723;52.220;8.792;2022-07-29T10:44:45;28.80;30.80
7366;DHT22;3723;52.220;8.792;2022-07-29T10:47:37;28.60;30.10
7366;DHT22;3723;52.220;8.792;2022-07-29T10:50:08;28.20;29.10
7366;DHT22;3723;52.220;8.792;2022-07-29T10:53:46;28.10;28.70
7366;DHT22;3723;52.220;8.792;2022-07-29T10:55:55;28.00;28.90
7366;DHT22;3723;52.220;8.792;2022-07-29T10:58:26;28.00;29.50
7366;DHT22;3723;52.220;8.792;2022-07-29T11:00:53;27.90;29.30
7366;DHT22;3723;52.220;8.792;2022-07-29T11:03:42;28.00;30.60
7366;DHT22;3723;52.220;8.792;2022-07-29T11:06:10;28.30;32.00
7366;DHT22;3723;52.220;8.792;2022-07-29T11:08:36;28.60;34.00
7366;DHT22;3723;52.220;8.792;2022-07-29T11:11:32;29.40;36.50
7366;DHT22;3723;52.220;8.792;2022-07-29T11:14:01;30.10;41.40
7366;DHT22;3723;52.220;8.792;2022-07-29T11:16:58;30.30;41.50
7366;DHT22;3723;52.220;8.792;2022-07-29T11:19:25;30.60;41.40
7366;DHT22;3723;52.220;8.792;2022-07-29T11:21:52;30.80;43.60
7366;DHT22;3723;52.220;8.792;2022-07-29T11:24:21;31.30;45.30
7366;DHT22;3723;52.220;8.792;2022-07-29T11:27:12;31.30;44.30
7366;DHT22;3723;52.220;8.792;2022-07-29T11:29:58;31.10;43.10
7366;DHT22;3723;52.220;8.792;2022-07-29T11:32:36;31.70;45.40
7366;DHT22;3723;52.220;8.792;2022-07-29T11:35:39;32.60;49.40
7366;DHT22;3723;52.220;8.792;2022-07-29T11:38:25;32.70;47.20
7366;DHT22;3723;52.220;8.792;2022-07-29T11:41:26;32.00;43.50
7366;DHT22;3723;52.220;8.792;2022-07-29T11:43:59;32.10;42.10
7366;DHT22;3723;52.220;8.792;2022-07-29T11:46:49;32.10;43.00
7366;DHT22;3723;52.220;8.792;2022-07-29T11:49:20;32.00;41.20
7366;DHT22;3723;52.220;8.792;2022-07-29T11:51:58;32.10;41.70
7366;DHT22;3723;52.220;8.792;2022-07-29T11:54:42;32.20;41.80
7366;DHT22;3723;52.220;8.792;2022-07-29T11:57:12;31.60;37.40
7366;DHT22;3723;52.220;8.792;2022-07-29T11:59:44;30.90;33.60
7366;DHT22;3723;52.220;8.792;2022-07-29T12:02:12;30.30;30.00
7366;DHT22;3723;52.220;8.792;2022-07-29T12:04:48;29.90;28.60
7366;DHT22;3723;52.220;8.792;2022-07-29T12:07:15;29.40;26.50
7366;DHT22;3723;52.220;8.792;2022-07-29T12:09:49;29.00;36.30
7366;DHT22;3723;52.220;8.792;2022-07-29T12:12:17;28.90;24.60
7366;DHT22;3723;52.220;8.792;2022-07-29T12:14:53;29.00;25.80
7366;DHT22;3723;52.220;8.792;2022-07-29T12:18:34;29.20;27.10
7366;DHT22;3723;52.220;8.792;2022-07-29T12:20:23;29.40;27.40
7366;DHT22;3723;52.220;8.792;2022-07-29T12:22:57;29.50;27.70
7366;DHT22;3723;52.220;8.792;2022-07-29T12:25:24;30.00;30.30
7366;DHT22;3723;52.220;8.792;2022-07-29T12:27:59;30.60;33.40
7366;DHT22;3723;52.220;8.792;2022-07-29T12:30:38;31.00;35.20
7366;DHT22;3723;52.220;8.792;2022-07-29T12:33:22;31.30;36.50
7366;DHT22;3723;52.220;8.792;2022-07-29T12:35:50;31.60;39.20
7366;DHT22;3723;52.220;8.792;2022-07-29T12:38:21;31.70;38.40
7366;DHT22;3723;52.220;8.792;2022-07-29T12:40:52;31.30;36.00
7366;DHT22;3723;52.220;8.792;2022-07-29T12:43:21;30.60;31.90
7366;DHT22;3723;52.220;8.792;2022-07-29T12:45:51;29.90;28.60
7366;DHT22;3723;52.220;8.792;2022-07-29T12:48:33;29.30;25.90
7366;DHT22;3723;52.220;8.792;2022-07-29T12:51:01;28.80;26.90
7366;DHT22;3723;52.220;8.792;2022-07-29T12:53:29;28.80;26.20
7366;DHT22;3723;52.220;8.792;2022-07-29T12:55:57;28.50;24.90
7366;DHT22;3723;52.220;8.792;2022-07-29T12:58:37;28.30;24.00
7366;DHT22;3723;52.220;8.792;2022-07-29T13:01:11;28.10;23.20
7366;DHT22;3723;52.220;8.792;2022-07-29T13:03:44;28.20;25.20
7366;DHT22;3723;52.220;8.792;2022-07-29T13:06:32;28.50;25.60
7366;DHT22;3723;52.220;8.792;2022-07-29T13:09:05;29.10;28.90
7366;DHT22;3723;52.220;8.792;2022-07-29T13:11:33;30.00;33.90
7366;DHT22;3723;52.220;8.792;2022-07-29T13:14:07;30.70;36.90
7366;DHT22;3723;52.220;8.792;2022-07-29T13:17:02;31.30;39.20
7366;DHT22;3723;52.220;8.792;2022-07-29T13:19:37;32.20;43.10
7366;DHT22;3723;52.220;8.792;2022-07-29T13:22:05;32.50;44.90
7366;DHT22;3723;52.220;8.792;2022-07-29T13:24:33;32.90;45.20
7366;DHT22;3723;52.220;8.792;2022-07-29T13:27:00;32.80;44.00
7366;DHT22;3723;52.220;8.792;2022-07-29T13:29:27;32.50;42.10
7366;DHT22;3723;52.220;8.792;2022-07-29T13:31:54;32.30;41.00
7366;DHT22;3723;52.220;8.792;2022-07-29T13:34:22;32.20;38.70
7366;DHT22;3723;52.220;8.792;2022-07-29T13:36:49;31.90;37.80
7366;DHT22;3723;52.220;8.792;2022-07-29T13:39:16;32.60;42.20
7366;DHT22;3723;52.220;8.792;2022-07-29T13:41:43;33.60;46.30
7366;DHT22;3723;52.220;8.792;2022-07-29T13:44:18;34.20;61.10
7366;DHT22;3723;52.220;8.792;2022-07-29T13:46:46;34.10;46.80
7366;DHT22;3723;52.220;8.792;2022-07-29T13:49:13;33.40;42.40
7366;DHT22;3723;52.220;8.792;2022-07-29T13:51:41;32.60;36.80
7366;DHT22;3723;52.220;8.792;2022-07-29T13:54:10;31.40;29.20
7366;DHT22;3723;52.220;8.792;2022-07-29T13:56:37;30.50;26.70
7366;DHT22;3723;52.220;8.792;2022-07-29T13:59:04;29.70;23.70
7366;DHT22;3723;52.220;8.792;2022-07-29T14:01:31;29.10;22.60
7366;DHT22;3723;52.220;8.792;2022-07-29T14:03:58;28.80;22.00
7366;DHT22;3723;52.220;8.792;2022-07-29T14:06:27;28.50;21.10
7366;DHT22;3723;52.220;8.792;2022-07-29T14:08:58;28.40;21.50
7366;DHT22;3723;52.220;8.792;2022-07-29T14:11:44;28.00;20.70
7366;DHT22;3723;52.220;8.792;2022-07-29T14:14:15;27.90;20.70
7366;DHT22;3723;52.220;8.792;2022-07-29T14:16:41;27.60;19.50
7366;DHT22;3723;52.220;8.792;2022-07-29T14:19:08;27.50;19.80
7366;DHT22;3723;52.220;8.792;2022-07-29T14:21:37;27.50;21.60
7366;DHT22;3723;52.220;8.792;2022-07-29T14:24:23;27.50;23.30
7366;DHT22;3723;52.220;8.792;2022-07-29T14:26:50;27.60;22.70
7366;DHT22;3723;52.220;8.792;2022-07-29T14:29:19;27.60;24.90
7366;DHT22;3723;52.220;8.792;2022-07-29T14:31:46;27.50;25.10
7366;DHT22;3723;52.220;8.792;2022-07-29T14:34:13;27.50;26.00
7366;DHT22;3723;52.220;8.792;2022-07-29T14:36:41;27.40;25.40
7366;DHT22;3723;52.220;8.792;2022-07-29T14:39:10;27.30;26.60
7366;DHT22;3723;52.220;8.792;2022-07-29T14:41:37;27.20;27.80
7366;DHT22;3723;52.220;8.792;2022-07-29T14:44:04;27.10;28.30
7366;DHT22;3723;52.220;8.792;2022-07-29T14:46:34;27.10;28.60
7366;DHT22;3723;52.220;8.792;2022-07-29T14:49:01;26.90;27.80
7366;DHT22;3723;52.220;8.792;2022-07-29T14:51:28;26.80;28.10
7366;DHT22;3723;52.220;8.792;2022-07-29T14:53:54;26.70;27.90
7366;DHT22;3723;52.220;8.792;2022-07-29T14:56:23;26.60;27.90
7366;DHT22;3723;52.220;8.792;2022-07-29T14:58:51;26.50;29.00
7366;DHT22;3723;52.220;8.792;2022-07-29T15:01:18;26.30;28.50
7366;DHT22;3723;52.220;8.792;2022-07-29T15:03:44;26.10;27.60
7366;DHT22;3723;52.220;8.792;2022-07-29T15:06:11;25.90;28.50
7366;DHT22;3723;52.220;8.792;2022-07-29T15:08:38;25.80;29.60
7366;DHT22;3723;52.220;8.792;2022-07-29T15:11:05;25.70;27.50
7366;DHT22;3723;52.220;8.792;2022-07-29T15:13:33;25.70;30.00
7366;DHT22;3723;52.220;8.792;2022-07-29T15:16:01;25.70;31.30
7366;DHT22;3723;52.220;8.792;2022-07-29T15:18:27;25.70;32.20
7366;DHT22;3723;52.220;8.792;2022-07-29T15:20:54;25.60;31.50
7366;DHT22;3723;52.220;8.792;2022-07-29T15:23:21;25.60;30.90
7366;DHT22;3723;52.220;8.792;2022-07-29T15:25:48;25.60;30.90
7366;DHT22;3723;52.220;8.792;2022-07-29T15:28:15;25.60;32.30
7366;DHT22;3723;52.220;8.792;2022-07-29T15:30:43;25.50;31.50
7366;DHT22;3723;52.220;8.792;2022-07-29T15:33:10;25.40;44.90
7366;DHT22;3723;52.220;8.792;2022-07-29T15:35:37;25.40;31.20
7366;DHT22;3723;52.220;8.792;2022-07-29T15:38:04;25.40;31.40
7366;DHT22;3723;52.220;8.792;2022-07-29T15:40:31;25.30;34.40
7366;DHT22;3723;52.220;8.792;2022-07-29T15:42:58;25.30;32.70
7366;DHT22;3723;52.220;8.792;2022-07-29T15:45:35;25.30;35.60
7366;DHT22;3723;52.220;8.792;2022-07-29T15:48:04;25.20;36.00
7366;DHT22;3723;52.220;8.792;2022-07-29T15:50:31;25.10;37.40
7366;DHT22;3723;52.220;8.792;2022-07-29T15:52:58;25.00;36.10
7366;DHT22;3723;52.220;8.792;2022-07-29T15:55:25;24.80;36.30
7366;DHT22;3723;52.220;8.792;2022-07-29T15:57:51;24.60;35.20
7366;DHT22;3723;52.220;8.792;2022-07-29T16:00:19;24.40;32.50
7366;DHT22;3723;52.220;8.792;2022-07-29T16:02:47;24.30;35.00
7366;DHT22;3723;52.220;8.792;2022-07-29T16:05:15;24.10;37.60
7366;DHT22;3723;52.220;8.792;2022-07-29T16:07:42;24.00;35.00
7366;DHT22;3723;52.220;8.792;2022-07-29T16:10:09;23.90;35.10
7366;DHT22;3723;52.220;8.792;2022-07-29T16:12:36;23.80;37.20
7366;DHT22;3723;52.220;8.792;2022-07-29T16:15:03;23.60;33.80
7366;DHT22;3723;52.220;8.792;2022-07-29T16:17:30;23.60;35.80
7366;DHT22;3723;52.220;8.792;2022-07-29T16:19:56;23.50;47.10
7366;DHT22;3723;52.220;8.792;2022-07-29T16:22:25;23.40;35.60
7366;DHT22;3723;52.220;8.792;2022-07-29T16:24:51;23.30;35.00
7366;DHT22;3723;52.220;8.792;2022-07-29T16:30:05;23.10;35.30
7366;DHT22;3723;52.220;8.792;2022-07-29T16:32:36;23.10;37.10
7366;DHT22;3723;52.220;8.792;2022-07-29T16:35:05;23.00;39.30
7366;DHT22;3723;52.220;8.792;2022-07-29T16:37:33;22.90;33.80
7366;DHT22;3723;52.220;8.792;2022-07-29T16:56:44;18.80;51.80
7366;DHT22;3723;52.220;8.792;2022-07-29T16:59:40;18.40;64.50
7366;DHT22;3723;52.220;8.792;2022-07-29T17:02:07;18.10;82.30
7366;DHT22;3723;52.220;8.792;2022-07-29T17:05:06;18.00;93.40
7366;DHT22;3723;52.220;8.792;2022-07-29T17:07:33;17.80;99.90
7366;DHT22;3723;52.220;8.792;2022-07-29T17:10:00;17.80;99.90
7366;DHT22;3723;52.220;8.792;2022-07-29T17:12:31;17.70;99.90
7366;DHT22;3723;52.220;8.792;2022-07-29T17:14:58;17.70;99.90
7366;DHT22;3723;52.220;8.792;2022-07-29T17:17:25;17.70;99.90
7366;DHT22;3723;52.220;8.792;2022-07-29T17:19:52;17.60;99.90
7366;DHT22;3723;52.220;8.792;2022-07-29T17:22:19;17.50;99.90
7366;DHT22;3723;52.220;8.792;2022-07-29T17:24:48;17.40;99.90
7366;DHT22;3723;52.220;8.792;2022-07-29T17:27:22;17.30;99.90
7366;DHT22;3723;52.220;8.792;2022-07-29T17:30:01;17.20;99.90
7366;DHT22;3723;52.220;8.792;2022-07-29T17:32:45;17.20;99.90
7366;DHT22;3723;52.220;8.792;2022-07-29T17:35:15;17.20;99.90
7366;DHT22;3723;52.220;8.792;2022-07-29T17:38:04;17.10;99.90
7366;DHT22;3723;52.220;8.792;2022-07-29T17:40:38;17.10;99.90
7366;DHT22;3723;52.220;8.792;2022-07-29T17:43:21;17.00;99.90
7366;DHT22;3723;52.220;8.792;2022-07-29T17:45:50;17.00;99.90
7366;DHT22;3723;52.220;8.792;2022-07-29T17:48:17;17.00;99.90
7366;DHT22;3723;52.220;8.792;2022-07-29T17:50:50;17.00;99.90
7366;DHT22;3723;52.220;8.792;2022-07-29T17:53:22;17.00;99.90
7366;DHT22;3723;52.220;8.792;2022-07-29T17:56:04;17.10;99.90
7366;DHT22;3723;52.220;8.792;2022-07-29T17:58:31;17.10;99.90
7366;DHT22;3723;52.220;8.792;2022-07-29T18:00:59;17.10;99.90
7366;DHT22;3723;52.220;8.792;2022-07-29T18:03:26;17.10;99.90
7366;DHT22;3723;52.220;8.792;2022-07-29T18:05:53;17.00;99.90
7366;DHT22;3723;52.220;8.792;2022-07-29T18:08:20;16.90;99.90
7366;DHT22;3723;52.220;8.792;2022-07-29T18:10:47;16.80;99.90
7366;DHT22;3723;52.220;8.792;2022-07-29T18:13:14;16.70;99.90
7366;DHT22;3723;52.220;8.792;2022-07-29T18:15:43;16.70;99.90
7366;DHT22;3723;52.220;8.792;2022-07-29T18:18:12;16.70;99.90
7366;DHT22;3723;52.220;8.792;2022-07-29T18:20:39;16.70;99.90
7366;DHT22;3723;52.220;8.792;2022-07-29T18:23:07;16.70;99.90
7366;DHT22;3723;52.220;8.792;2022-07-29T18:25:34;16.70;99.90
7366;DHT22;3723;52.220;8.792;2022-07-29T18:28:01;16.70;99.90
7366;DHT22;3723;52.220;8.792;2022-07-29T18:30:28;16.70;1.00
7366;DHT22;3723;52.220;8.792;2022-07-29T18:32:57;16.70;1.00
7366;DHT22;3723;52.220;8.792;2022-07-29T18:35:26;16.70;1.00
7366;DHT22;3723;52.220;8.792;2022-07-29T18:37:53;16.70;1.00
7366;DHT22;3723;52.220;8.792;2022-07-29T18:40:20;16.80;1.00
7366;DHT22;3723;52.220;8.792;2022-07-29T18:42:48;16.70;1.00
7366;DHT22;3723;52.220;8.792;2022-07-29T18:45:15;16.70;99.90
7366;DHT22;3723;52.220;8.792;2022-07-29T18:47:42;16.80;99.90
7366;DHT22;3723;52.220;8.792;2022-07-29T18:50:09;16.80;99.90
7366;DHT22;3723;52.220;8.792;2022-07-29T18:52:37;16.80;99.90
7366;DHT22;3723;52.220;8.792;2022-07-29T18:55:05;16.70;99.90
7366;DHT22;3723;52.220;8.792;2022-07-29T18:57:33;16.70;99.90
7366;DHT22;3723;52.220;8.792;2022-07-29T19:00:00;16.70;99.90
7366;DHT22;3723;52.220;8.792;2022-07-29T19:02:27;16.70;99.90
7366;DHT22;3723;52.220;8.792;2022-07-29T19:04:53;16.70;99.90
7366;DHT22;3723;52.220;8.792;2022-07-29T19:07:21;16.70;99.90
7366;DHT22;3723;52.220;8.792;2022-07-29T19:09:51;16.80;99.90
7366;DHT22;3723;52.220;8.792;2022-07-29T19:12:18;16.80;99.90
7366;DHT22;3723;52.220;8.792;2022-07-29T19:14:45;16.80;99.90
7366;DHT22;3723;52.220;8.792;2022-07-29T19:17:12;16.90;99.90
7366;DHT22;3723;52.220;8.792;2022-07-29T19:19:38;16.80;99.90
7366;DHT22;3723;52.220;8.792;2022-07-29T19:22:06;16.80;99.90
7366;DHT22;3723;52.220;8.792;2022-07-29T19:24:32;16.70;99.90
7366;DHT22;3723;52.220;8.792;2022-07-29T19:27:01;16.50;99.90
7366;DHT22;3723;52.220;8.792;2022-07-29T19:29:27;16.50;99.90
7366;DHT22;3723;52.220;8.792;2022-07-29T19:31:56;16.40;99.90
7366;DHT22;3723;52.220;8.792;2022-07-29T19:34:24;16.40;99.90
7366;DHT22;3723;52.220;8.792;2022-07-29T19:36:51;16.30;99.90
7366;DHT22;3723;52.220;8.792;2022-07-29T19:39:18;16.30;99.90
7366;DHT22;3723;52.220;8.792;2022-07-29T19:41:45;16.20;99.90
7366;DHT22;3723;52.220;8.792;2022-07-29T19:44:14;16.30;99.90
7366;DHT22;3723;52.220;8.792;2022-07-29T19:46:41;16.30;99.90
7366;DHT22;3723;52.220;8.792;2022-07-29T19:49:10;16.40;99.90
7366;DHT22;3723;52.220;8.792;2022-07-29T19:51:38;16.40;99.90
7366;DHT22;3723;52.220;8.792;2022-07-29T19:54:05;16.40;99.90
7366;DHT22;3723;52.220;8.792;2022-07-29T19:56:32;16.30;99.90
7366;DHT22;3723;52.220;8.792;2022-07-29T19:58:59;16.40;99.90
7366;DHT22;3723;52.220;8.792;2022-07-29T20:01:27;16.30;99.90
7366;DHT22;3723;52.220;8.792;2022-07-29T20:03:56;16.30;99.90
7366;DHT22;3723;52.220;8.792;2022-07-29T20:06:23;16.20;99.90
7366;DHT22;3723;52.220;8.792;2022-07-29T20:08:51;16.20;99.90
7366;DHT22;3723;52.220;8.792;2022-07-29T20:11:18;16.20;99.90
7366;DHT22;3723;52.220;8.792;2022-07-29T20:13:45;16.20;99.90
7366;DHT22;3723;52.220;8.792;2022-07-29T20:16:11;16.20;99.90
7366;DHT22;3723;52.220;8.792;2022-07-29T20:18:40;16.20;99.90
7366;DHT22;3723;52.220;8.792;2022-07-29T20:21:06;16.20;99.90
7366;DHT22;3723;52.220;8.792;2022-07-29T20:23:33;16.20;99.90
7366;DHT22;3723;52.220;8.792;2022-07-29T20:26:01;16.20;99.90
7366;DHT22;3723;52.220;8.792;2022-07-29T20:28:28;16.20;99.90
7366;DHT22;3723;52.220;8.792;2022-07-29T20:30:55;16.10;99.90
7366;DHT22;3723;52.220;8.792;2022-07-29T20:33:22;16.10;99.90
7366;DHT22;3723;52.220;8.792;2022-07-29T20:35:50;16.10;99.90
7366;DHT22;3723;52.220;8.792;2022-07-29T20:38:17;16.10;99.90
7366;DHT22;3723;52.220;8.792;2022-07-29T20:40:44;16.10;99.90
7366;DHT22;3723;52.220;8.792;2022-07-29T20:43:11;16.10;99.90
7366;DHT22;3723;52.220;8.792;2022-07-29T20:45:38;16.00;99.90
7366;DHT22;3723;52.220;8.792;2022-07-29T20:48:06;16.10;99.90
7366;DHT22;3723;52.220;8.792;2022-07-29T20:50:32;16.10;99.90
7366;DHT22;3723;52.220;8.792;2022-07-29T20:53:01;16.10;99.90
7366;DHT22;3723;52.220;8.792;2022-07-29T20:55:27;16.10;99.90
7366;DHT22;3723;52.220;8.792;2022-07-29T20:57:54;16.00;99.90
7366;DHT22;3723;52.220;8.792;2022-07-29T21:00:21;16.00;99.90
7366;DHT22;3723;52.220;8.792;2022-07-29T21:02:48;16.00;99.90
7366;DHT22;3723;52.220;8.792;2022-07-29T21:05:16;16.00;99.90
7366;DHT22;3723;52.220;8.792;2022-07-29T21:07:42;16.10;99.90
7366;DHT22;3723;52.220;8.792;2022-07-29T21:10:11;16.10;99.90
7366;DHT22;3723;52.220;8.792;2022-07-29T21:12:39;16.10;99.90
7366;DHT22;3723;52.220;8.792;2022-07-29T21:15:07;16.20;99.90
7366;DHT22;3723;52.220;8.792;2022-07-29T21:17:38;16.20;99.90
7366;DHT22;3723;52.220;8.792;2022-07-29T21:20:11;16.20;99.90
7366;DHT22;3723;52.220;8.792;2022-07-29T21:22:39;16.20;99.90
7366;DHT22;3723;52.220;8.792;2022-07-29T21:25:07;16.20;99.90
7366;DHT22;3723;52.220;8.792;2022-07-29T21:27:36;16.20;99.90
7366;DHT22;3723;52.220;8.792;2022-07-29T21:30:21;16.20;99.90
7366;DHT22;3723;52.220;8.792;2022-07-29T21:32:48;16.20;99.90
7366;DHT22;3723;52.220;8.792;2022-07-29T21:35:15;16.20;99.90
7366;DHT22;3723;52.220;8.792;2022-07-29T21:37:42;16.20;99.90
7366;DHT22;3723;52.220;8.792;2022-07-29T21:40:09;16.20;99.90
7366;DHT22;3723;52.220;8.792;2022-07-29T21:42:38;16.20;99.90
7366;DHT22;3723;52.220;8.792;2022-07-29T21:45:05;16.20;99.90